Time;durP1;ratioP1;P1;durP2;ratioP2;P2;SDS_P1;SDS_P2;PMS_P1;PMS_P2;Temp;Humidity;BMP_temperature;BMP_pressure;BME280_temperature;BME280_humidity;BME280_pressure;Samples;Min_cycle;Max_cycle;Signal;HPM_P1;HPM_P2
2022/11/17 00:02:09;;;;;;;3.90;3.50;;;;;;;2.30;100.00;97708.09;106336;1278;68402;-76
2022/11/17 00:04:36;;;;;;;4.10;3.70;;;;;;;2.29;100.00;97715.34;106348;1285;60797;-75
2022/11/17 00:07:02;;;;;;;4.70;4.30;;;;;;;2.30;100.00;97721.80;106355;1285;65287;-76
2022/11/17 00:09:29;;;;;;;4.90;4.50;;;;;;;2.31;100.00;97722.77;106347;1285;60069;-77
2022/11/17 00:14:40;;;;;;;7.20;6.50;;;;;;;2.32;100.00;97721.68;106333;1283;67823;-77
2022/11/17 00:17:11;;;;;;;7.40;6.70;;;;;;;2.30;100.00;97722.85;106382;1285;59943;-76
2022/11/17 00:22:24;;;;;;;7.20;6.50;;;;;;;2.26;100.00;97718.13;106316;1285;60024;-76
2022/11/17 00:24:50;;;;;;;8.00;7.20;;;;;;;2.24;100.00;97707.56;106311;1285;60131;-75
2022/11/17 00:27:17;;;;;;;8.30;7.50;;;;;;;2.23;100.00;97700.25;106319;1285;66695;-76
2022/11/17 00:29:43;;;;;;;8.50;7.80;;;;;;;2.22;100.00;97695.92;106203;1271;68689;-76
2022/11/17 00:34:57;;;;;;;7.20;6.50;;;;;;;2.23;100.00;97697.83;106100;1288;59618;-76
2022/11/17 00:37:25;;;;;;;5.60;5.00;;;;;;;2.20;100.00;97703.88;106307;1278;59623;-76
2022/11/17 00:39:52;;;;;;;5.00;4.50;;;;;;;2.20;100.00;97706.71;106304;1278;74483;-76
2022/11/17 00:42:19;;;;;;;5.00;4.50;;;;;;;2.21;100.00;97711.55;106253;1281;61236;-76
2022/11/17 00:44:46;;;;;;;4.30;3.90;;;;;;;2.23;100.00;97710.98;106302;1285;64036;-77
2022/11/17 00:47:12;;;;;;;3.60;3.30;;;;;;;2.24;100.00;97706.17;106317;1278;59632;-75
2022/11/17 00:49:39;;;;;;;4.20;3.80;;;;;;;2.24;100.00;97704.44;106307;1278;61252;-77
2022/11/17 00:52:05;;;;;;;5.10;3.70;;;;;;;2.21;100.00;97697.73;106303;1285;67947;-77
2022/11/17 00:54:32;;;;;;;3.30;3.00;;;;;;;2.18;100.00;97690.70;106336;1285;59965;-77
2022/11/17 00:56:59;;;;;;;3.00;2.80;;;;;;;2.16;100.00;97692.77;106309;1278;63930;-77
2022/11/17 00:59:25;;;;;;;2.70;2.50;;;;;;;2.13;100.00;97690.27;106309;1278;59812;-78
2022/11/17 01:01:52;;;;;;;2.70;2.50;;;;;;;2.11;100.00;97694.09;106335;1285;59637;-77
2022/11/17 01:04:18;;;;;;;3.00;2.70;;;;;;;2.10;100.00;97701.30;106300;1278;74800;-76
2022/11/17 01:06:47;;;;;;;2.90;2.70;;;;;;;2.10;100.00;97705.30;106322;1278;60785;-76
2022/11/17 01:09:20;;;;;;;3.50;3.20;;;;;;;2.11;100.00;97708.81;106326;1285;63996;-77
2022/11/17 01:11:48;;;;;;;5.90;5.30;;;;;;;2.12;100.00;97707.49;106318;1288;59637;-76
2022/11/17 01:14:18;;;;;;;5.10;4.50;;;;;;;2.13;100.00;97704.48;106311;1285;59730;-76
2022/11/17 01:16:45;;;;;;;5.50;5.10;;;;;;;2.12;100.00;97700.98;106318;1278;68109;-75
2022/11/17 01:19:14;;;;;;;4.20;3.90;;;;;;;2.13;100.00;97706.90;106312;1284;68749;-74
2022/11/17 01:21:41;;;;;;;4.80;4.40;;;;;;;2.13;100.00;97707.98;106105;1291;65281;-76
2022/11/17 01:24:10;;;;;;;5.60;5.10;;;;;;;2.12;100.00;97709.42;106344;1285;59680;-77
2022/11/17 01:26:38;;;;;;;5.30;4.90;;;;;;;2.12;100.00;97706.27;106359;1278;59598;-76
2022/11/17 01:29:06;;;;;;;5.00;4.60;;;;;;;2.14;100.00;97707.92;106342;1277;76412;-76
2022/11/17 01:31:36;;;;;;;4.10;3.80;;;;;;;2.14;100.00;97702.30;106374;1285;61302;-76
2022/11/17 01:34:03;;;;;;;3.60;3.30;;;;;;;2.14;100.00;97697.55;106342;1285;71342;-76
2022/11/17 01:37:17;;;;;;;3.40;3.10;;;;;;;2.14;100.00;97702.13;106349;1286;59647;-75
2022/11/17 01:39:26;;;;;;;3.10;2.60;;;;;;;2.13;100.00;97706.58;106358;1285;59644;-77
2022/11/17 01:41:53;;;;;;;3.40;3.10;;;;;;;2.12;100.00;97705.20;106347;1278;68055;-76
2022/11/17 01:44:55;;;;;;;3.30;3.10;;;;;;;2.12;100.00;97706.59;106366;1282;69664;-76
2022/11/17 01:47:42;;;;;;;3.30;2.90;;;;;;;2.11;100.00;97700.38;105661;1294;73889;-77
2022/11/17 01:50:33;;;;;;;3.20;2.90;;;;;;;2.11;100.00;97696.20;105645;1286;60141;-76
2022/11/17 01:53:03;;;;;;;3.00;2.80;;;;;;;2.10;100.00;97685.34;105664;1285;59819;-76
2022/11/17 01:55:39;;;;;;;3.10;2.90;;;;;;;2.10;100.00;97675.02;105627;1293;66576;-74
2022/11/17 01:58:23;;;;;;;2.90;2.70;;;;;;;2.08;100.00;97669.69;105614;1289;61155;-76
2022/11/17 02:00:50;;;;;;;3.30;3.00;;;;;;;2.06;100.00;97669.64;105616;1295;64010;-73
2022/11/17 02:03:17;;;;;;;2.40;2.20;;;;;;;2.05;100.00;97680.36;105598;1297;59874;-75
2022/11/17 02:05:54;;;;;;;2.20;2.10;;;;;;;2.06;100.00;97686.13;105664;1294;59592;-76
2022/11/17 02:08:25;;;;;;;2.20;2.10;;;;;;;2.06;100.00;97685.58;105636;1293;65757;-76
2022/11/17 02:10:52;;;;;;;2.50;2.30;;;;;;;2.06;100.00;97683.64;105652;1294;60027;-76
2022/11/17 02:13:20;;;;;;;2.60;2.40;;;;;;;2.06;100.00;97688.21;105665;1300;73720;-77
2022/11/17 02:15:47;;;;;;;3.60;2.80;;;;;;;2.05;100.00;97688.06;105646;1294;59820;-76
2022/11/17 02:18:15;;;;;;;3.50;3.20;;;;;;;2.05;100.00;97689.80;105670;1293;59668;-77
2022/11/17 02:21:11;;;;;;;2.70;2.50;;;;;;;2.06;100.00;97687.86;105679;1288;66783;-77
2022/11/17 02:24:12;;;;;;;2.90;2.70;;;;;;;2.06;100.00;97683.82;105559;1294;60175;-77
2022/11/17 02:26:57;;;;;;;3.20;2.90;;;;;;;2.08;100.00;97687.41;105570;1294;64131;-76
2022/11/17 02:29:51;;;;;;;3.20;3.00;;;;;;;2.07;100.00;97682.88;105755;1294;59690;-77
2022/11/17 02:32:29;;;;;;;2.70;2.50;;;;;;;2.07;100.00;97684.84;105748;1292;60170;-75
2022/11/17 02:35:08;;;;;;;2.90;2.70;;;;;;;2.09;100.00;97687.38;105750;1294;76609;-76
2022/11/17 02:37:47;;;;;;;4.10;3.40;;;;;;;2.08;100.00;97685.63;105772;1286;61309;-77
2022/11/17 02:40:33;;;;;;;5.20;3.70;;;;;;;2.09;100.00;97684.86;105741;1294;65329;-76
2022/11/17 02:46:07;;;;;;;3.40;3.10;;;;;;;2.11;100.00;97684.23;105691;1285;59791;-76
2022/11/17 02:48:47;;;;;;;3.70;3.40;;;;;;;2.12;100.00;97682.98;105656;1294;67876;-76
2022/11/17 02:51:20;;;;;;;4.10;3.70;;;;;;;2.11;100.00;97686.86;105668;1286;61049;-77
2022/11/17 02:53:49;;;;;;;3.80;3.40;;;;;;;2.11;100.00;97683.91;105651;1287;64060;-77
2022/11/17 02:56:15;;;;;;;3.00;2.50;;;;;;;2.11;100.00;97682.33;105665;1301;60167;-74
2022/11/17 02:58:42;;;;;;;3.10;2.90;;;;;;;2.11;100.00;97679.16;105678;1293;60046;-78
2022/11/17 03:01:20;;;;;;;2.70;2.50;;;;;;;2.11;100.00;97683.04;106149;1285;66941;-75
2022/11/17 03:04:10;;;;;;;3.10;2.80;;;;;;;2.10;100.00;97686.36;106329;1286;59815;-75
2022/11/17 03:06:47;;;;;;;2.10;2.00;;;;;;;2.09;100.00;97683.47;106306;1285;64329;-75
2022/11/17 03:09:19;;;;;;;2.30;2.10;;;;;;;2.08;100.00;97680.39;106093;1294;59702;-76
2022/11/17 03:11:58;;;;;;;2.10;1.80;;;;;;;2.08;100.00;97683.52;106295;1285;59529;-76
2022/11/17 03:15:02;;;;;;;4.00;2.00;;;;;;;2.07;100.00;97683.74;106279;1279;66800;-73
2022/11/17 03:17:40;;;;;;;2.00;1.90;;;;;;;2.06;100.00;97684.52;105628;1295;60020;-76
2022/11/17 03:20:22;;;;;;;2.30;2.10;;;;;;;2.06;100.00;97686.11;105650;1292;65345;-76
2022/11/17 03:22:57;;;;;;;3.10;2.80;;;;;;;2.06;100.00;97683.99;105496;1294;59665;-76
2022/11/17 03:25:28;;;;;;;2.10;2.00;;;;;;;2.06;100.00;97680.52;105647;1287;60068;-76
2022/11/17 03:28:00;;;;;;;1.80;1.70;;;;;;;2.05;100.00;97679.48;105672;1294;68133;-77
2022/11/17 03:30:28;;;;;;;1.90;1.70;;;;;;;2.05;100.00;97683.54;105504;1289;61366;-74
2022/11/17 03:33:01;;;;;;;2.10;2.00;;;;;;;2.04;100.00;97682.67;105667;1293;71720;-77
2022/11/17 03:35:32;;;;;;;2.10;1.90;;;;;;;2.04;100.00;97683.44;105673;1294;59694;-77
2022/11/17 03:38:14;;;;;;;1.70;1.60;;;;;;;2.02;100.00;97682.61;105552;1295;59772;-77
2022/11/17 03:40:45;;;;;;;2.20;2.00;;;;;;;2.01;100.00;97672.05;105695;1293;65625;-77
2022/11/17 03:43:15;;;;;;;1.90;1.80;;;;;;;1.99;100.00;97677.34;105682;1295;60315;-76
2022/11/17 03:45:49;;;;;;;;;;;;;;;1.99;100.00;97676.15;105672;1301;65307;-76
2022/11/17 03:48:24;;;;;;;2.10;2.00;;;;;;;1.98;100.00;97679.88;105685;1287;59992;-76
2022/11/17 03:50:50;;;;;;;2.40;2.20;;;;;;;1.97;100.00;97680.44;105693;1287;61462;-76
2022/11/17 03:53:17;;;;;;;3.00;2.70;;;;;;;1.97;100.00;97676.77;105691;1294;65590;-76
2022/11/17 03:55:53;;;;;;;2.70;2.30;;;;;;;1.96;100.00;97676.09;106298;1284;59673;-77
2022/11/17 03:58:24;;;;;;;1.80;1.70;;;;;;;1.94;100.00;97682.16;106313;1284;65257;-77
2022/11/17 04:00:52;;;;;;;2.60;1.90;;;;;;;1.91;100.00;97682.15;106295;1278;60278;-76
2022/11/17 04:03:22;;;;;;;1.80;1.70;;;;;;;1.89;100.00;97684.02;106328;1286;59696;-76
2022/11/17 04:05:48;;;;;;;2.30;2.10;;;;;;;1.88;100.00;97685.29;106314;1285;65588;-74
2022/11/17 04:08:15;;;;;;;2.60;2.30;;;;;;;1.86;100.00;97676.61;105568;1286;1002778;-76
2022/11/17 04:16:12;;;;;;;2.10;1.80;;;;;;;1.82;100.00;97668.47;106322;1280;59694;-77
2022/11/17 04:18:38;;;;;;;2.30;2.00;;;;;;;1.80;100.00;97674.16;106316;1286;59918;-77
2022/11/17 04:21:05;;;;;;;2.80;2.60;;;;;;;1.79;100.00;97679.45;106397;1286;59914;-76
2022/11/17 04:23:32;;;;;;;1.80;1.70;;;;;;;1.79;100.00;97680.88;106243;1285;148657;-77
2022/11/17 04:28:47;;;;;;;1.40;1.30;;;;;;;1.80;100.00;97684.52;106356;1285;59867;-77
2022/11/17 04:31:14;;;;;;;1.70;1.60;;;;;;;1.79;100.00;97684.71;106342;1286;65585;-74
2022/11/17 04:33:47;;;;;;;1.60;1.50;;;;;;;1.78;100.00;97684.77;106362;1284;60011;-77
2022/11/17 04:36:20;;;;;;;1.60;1.50;;;;;;;1.77;100.00;97675.21;106353;1278;65448;-77
2022/11/17 04:38:50;;;;;;;1.60;1.50;;;;;;;1.76;100.00;97672.64;106332;1286;59648;-77
2022/11/17 04:44:07;;;;;;;1.20;1.10;;;;;;;1.75;100.00;97679.52;106331;1286;74537;-77
2022/11/17 04:46:35;;;;;;;2.20;2.00;;;;;;;1.75;100.00;97684.08;106367;1286;60030;-77
2022/11/17 04:49:03;;;;;;;1.50;1.40;;;;;;;1.74;100.00;97689.19;106335;1285;64092;-77
2022/11/17 04:51:31;;;;;;;1.70;1.50;;;;;;;1.73;100.00;97694.11;106347;1275;59692;-77
2022/11/17 04:53:58;;;;;;;2.90;1.80;;;;;;;1.74;100.00;97694.98;106352;1279;59457;-77
2022/11/17 04:56:26;;;;;;;1.70;1.50;;;;;;;1.74;100.00;97700.39;106384;1285;75303;-77
2022/11/17 04:58:52;;;;;;;1.90;1.80;;;;;;;1.75;100.00;97698.04;106146;1280;60073;-76
2022/11/17 05:01:21;;;;;;;2.00;1.80;;;;;;;1.76;100.00;97699.78;106364;1285;64935;-77
2022/11/17 05:03:54;;;;;;;2.30;2.10;;;;;;;1.76;100.00;97701.33;106342;1289;59594;-76
2022/11/17 05:06:25;;;;;;;2.90;2.70;;;;;;;1.77;100.00;97702.39;106319;1286;60005;-77
2022/11/17 05:08:54;;;;;;;3.20;2.90;;;;;;;1.78;100.00;97701.45;106329;1286;68029;-77
2022/11/17 05:14:11;;;;;;;;;;;;;;;1.78;100.00;97690.71;106327;1278;65094;-74
2022/11/17 05:19:26;;;;;;;3.00;2.80;;;;;;;1.79;100.00;97696.27;106365;1285;60032;-78
2022/11/17 05:21:53;;;;;;;3.10;2.80;;;;;;;1.81;100.00;97699.67;106318;1285;67969;-75
2022/11/17 05:24:19;;;;;;;3.10;2.80;;;;;;;1.83;100.00;97694.87;106359;1285;61002;-74
2022/11/17 05:26:48;;;;;;;4.70;3.60;;;;;;;1.84;100.00;97696.89;106353;1285;65239;-77
2022/11/17 05:29:17;;;;;;;3.60;3.30;;;;;;;1.86;100.00;97702.41;106359;1286;59738;-77
2022/11/17 05:31:44;;;;;;;4.10;3.70;;;;;;;1.86;100.00;97702.91;106355;1285;59794;-77
2022/11/17 05:34:12;;;;;;;3.90;3.60;;;;;;;1.86;100.00;97700.80;106257;1287;68073;-76
2022/11/17 05:36:40;;;;;;;3.60;3.30;;;;;;;1.88;100.00;97699.00;106360;1284;59853;-78
2022/11/17 05:39:07;;;;;;;3.70;3.40;;;;;;;1.88;100.00;97695.13;106356;1286;65195;-77
2022/11/17 05:41:35;;;;;;;3.10;2.80;;;;;;;1.89;100.00;97692.80;106378;1292;60022;-76
2022/11/17 05:44:03;;;;;;;3.60;3.30;;;;;;;1.89;100.00;97694.17;106372;1285;59528;-76
2022/11/17 05:46:30;;;;;;;3.40;2.80;;;;;;;1.89;100.00;97693.64;106312;1286;66936;-76
2022/11/17 05:48:57;;;;;;;3.30;2.90;;;;;;;1.90;100.00;97699.90;106377;1284;60061;-77
2022/11/17 05:51:24;;;;;;;3.30;3.00;;;;;;;1.92;100.00;97697.88;106117;1289;62970;-76
2022/11/17 05:53:50;;;;;;;3.10;2.80;;;;;;;1.94;100.00;97702.64;106357;1285;59769;-77
2022/11/17 05:56:29;;;;;;;3.40;3.10;;;;;;;1.96;100.00;97708.69;106335;1285;60065;-77
2022/11/17 05:59:05;;;;;;;3.30;3.00;;;;;;;1.98;100.00;97709.30;106336;1285;76346;-76
2022/11/17 06:01:35;;;;;;;3.80;3.30;;;;;;;2.00;100.00;97712.73;106335;1285;60098;-76
2022/11/17 06:04:04;;;;;;;3.30;2.70;;;;;;;2.01;100.00;97710.17;106330;1279;65237;-77
2022/11/17 06:06:33;;;;;;;3.60;3.30;;;;;;;2.03;100.00;97712.38;106245;1277;59641;-77
2022/11/17 06:09:00;;;;;;;3.10;2.90;;;;;;;2.03;100.00;97713.77;106388;1285;59701;-77
2022/11/17 06:11:26;;;;;;;3.40;3.10;;;;;;;2.03;100.00;97718.33;106106;1288;65739;-77
2022/11/17 06:13:53;;;;;;;3.00;2.80;;;;;;;2.04;100.00;97722.63;106363;1286;61227;-78
2022/11/17 06:16:24;;;;;;;2.00;1.90;;;;;;;2.05;100.00;97727.13;106356;1286;65185;-76
2022/11/17 06:19:00;;;;;;;2.00;1.90;;;;;;;2.05;100.00;97726.41;106359;1286;59751;-77
2022/11/17 06:21:26;;;;;;;2.30;2.10;;;;;;;2.06;100.00;97728.65;106379;1292;59533;-77
2022/11/17 06:23:53;;;;;;;2.00;1.90;;;;;;;2.06;100.00;97730.23;106362;1286;67800;-76
2022/11/17 06:26:20;;;;;;;2.10;1.90;;;;;;;2.06;100.00;97729.20;106341;1286;59880;-77
2022/11/17 06:28:49;;;;;;;2.30;2.10;;;;;;;2.05;100.00;97727.48;106367;1278;64093;-77
2022/11/17 06:31:16;;;;;;;2.40;2.20;;;;;;;2.05;100.00;97735.58;106345;1292;59639;-77
2022/11/17 06:33:44;;;;;;;2.50;2.00;;;;;;;2.04;100.00;97740.52;106379;1284;59846;-76
2022/11/17 06:36:11;;;;;;;2.40;2.20;;;;;;;2.04;100.00;97744.91;106353;1282;67984;-78
2022/11/17 06:38:37;;;;;;;3.00;2.70;;;;;;;2.05;100.00;97742.72;106244;1283;68700;-76
2022/11/17 06:41:04;;;;;;;2.80;2.60;;;;;;;2.06;100.00;97744.07;106354;1282;65170;-77
2022/11/17 06:43:31;;;;;;;2.90;2.70;;;;;;;2.07;100.00;97742.63;106354;1285;59770;-76
2022/11/17 06:46:04;;;;;;;2.60;2.40;;;;;;;2.07;100.00;97741.37;106342;1282;59706;-77
2022/11/17 06:48:34;;;;;;;3.80;3.10;;;;;;;2.07;100.00;97744.03;106318;1285;65704;-77
2022/11/17 06:51:04;;;;;;;1.90;1.80;;;;;;;2.06;100.00;97738.46;106359;1284;60167;-77
2022/11/17 06:53:32;;;;;;;2.00;1.50;;;;;;;2.05;100.00;97734.48;106222;1286;65126;-76
2022/11/17 06:56:09;;;;;;;1.40;1.30;;;;;;;2.04;100.00;97738.73;105613;1278;1002530;-75
2022/11/17 06:58:40;;;;;;;1.30;1.20;;;;;;;2.02;100.00;97742.02;106269;1278;59699;-77
2022/11/17 07:01:11;;;;;;;2.50;1.30;;;;;;;2.01;100.00;97744.00;105937;1293;65477;-77
2022/11/17 07:03:39;;;;;;;1.80;1.60;;;;;;;2.02;100.00;97740.65;106384;1286;61058;-76
2022/11/17 07:06:08;;;;;;;2.30;1.70;;;;;;;2.02;100.00;97736.09;106326;1285;62753;-77
2022/11/17 07:08:36;;;;;;;1.90;1.30;;;;;;;2.02;100.00;97737.27;106332;1285;59695;-78
2022/11/17 07:11:02;;;;;;;1.60;1.50;;;;;;;2.03;100.00;97736.38;106354;1285;59698;-77
2022/11/17 07:13:31;;;;;;;2.00;1.70;;;;;;;2.03;100.00;97738.81;106378;1291;65431;-77
2022/11/17 07:16:19;;;;;;;2.40;1.80;;;;;;;2.03;100.00;97740.36;106279;1288;61245;-77
2022/11/17 07:18:46;;;;;;;2.60;1.90;;;;;;;2.04;100.00;97741.02;106375;1287;64011;-78
2022/11/17 07:21:13;;;;;;;2.70;2.30;;;;;;;2.07;100.00;97745.63;106342;1274;59662;-77
2022/11/17 07:23:46;;;;;;;2.40;1.80;;;;;;;2.08;100.00;97750.43;106427;1286;59704;-76
2022/11/17 07:26:13;;;;;;;1.80;1.70;;;;;;;2.08;100.00;97755.34;106394;1284;65600;-77
2022/11/17 07:28:39;;;;;;;2.30;2.00;;;;;;;2.09;100.00;97752.86;106371;1285;68903;-79
2022/11/17 07:31:07;;;;;;;2.80;2.60;;;;;;;2.10;100.00;97746.30;106368;1279;72824;-78
2022/11/17 07:33:34;;;;;;;3.00;2.70;;;;;;;2.13;100.00;97749.64;106401;1286;60010;-77
2022/11/17 07:36:06;;;;;;;2.60;2.40;;;;;;;2.14;100.00;97751.54;106377;1284;59734;-78
2022/11/17 07:38:34;;;;;;;2.40;2.20;;;;;;;2.15;100.00;97757.95;106409;1282;67680;-79
2022/11/17 07:41:01;;;;;;;2.50;2.30;;;;;;;2.16;100.00;97758.93;106075;1284;60008;-78
2022/11/17 07:43:28;;;;;;;2.20;1.90;;;;;;;2.18;100.00;97757.28;106244;1284;64164;-77
2022/11/17 07:45:55;;;;;;;1.90;1.70;;;;;;;2.19;100.00;97753.17;106385;1282;59644;-77
2022/11/17 07:48:22;;;;;;;2.10;2.00;;;;;;;2.18;100.00;97757.42;106135;1288;59761;-78
2022/11/17 07:50:48;;;;;;;2.20;2.00;;;;;;;2.18;100.00;97758.16;106144;1287;67373;-79
2022/11/17 07:53:15;;;;;;;2.30;1.80;;;;;;;2.17;100.00;97758.90;106342;1286;60994;-78
2022/11/17 07:55:42;;;;;;;1.90;1.80;;;;;;;2.16;100.00;97752.33;106123;1284;72936;-78
2022/11/17 07:58:09;;;;;;;1.70;1.60;;;;;;;2.14;100.00;97754.49;106530;1284;59527;-76
2022/11/17 08:00:36;;;;;;;2.00;1.80;;;;;;;2.14;100.00;97757.14;106744;1284;58914;-77
2022/11/17 08:03:03;;;;;;;1.80;1.70;;;;;;;2.16;100.00;97760.36;106349;1284;65525;-78
2022/11/17 08:05:33;;;;;;;1.70;1.60;;;;;;;2.18;100.00;97756.77;106379;1286;60956;-78
2022/11/17 08:08:00;;;;;;;2.40;2.00;;;;;;;2.17;100.00;97757.33;106298;1285;62906;-78
2022/11/17 08:10:31;;;;;;;1.70;1.60;;;;;;;2.16;100.00;97755.09;106651;1285;60070;-77
2022/11/17 08:13:02;;;;;;;2.40;2.20;;;;;;;2.14;100.00;97751.70;106395;1287;59906;-77
2022/11/17 08:15:30;;;;;;;2.40;2.20;;;;;;;2.15;100.00;97752.72;106317;1278;66678;-77
2022/11/17 08:17:59;;;;;;;2.50;2.00;;;;;;;2.17;100.00;97756.98;106327;1291;60109;-77
2022/11/17 08:20:28;;;;;;;2.50;2.30;;;;;;;2.16;100.00;97757.73;106319;1286;64025;-78
2022/11/17 08:22:54;;;;;;;2.10;1.70;;;;;;;2.15;100.00;97758.46;105967;1297;59814;-78
2022/11/17 08:25:24;;;;;;;2.20;1.90;;;;;;;2.16;100.00;97749.87;106341;1285;59670;-77
2022/11/17 08:27:56;;;;;;;2.30;2.10;;;;;;;2.17;100.00;97747.00;106197;1288;68103;-78
2022/11/17 08:30:24;;;;;;;3.10;2.90;;;;;;;2.20;100.00;97748.42;106328;1284;60032;-79
2022/11/17 08:32:53;;;;;;;2.60;2.40;;;;;;;2.24;100.00;97753.15;106302;1282;62819;-78
2022/11/17 08:35:22;;;;;;;2.60;2.20;;;;;;;2.26;100.00;97754.23;106321;1284;59684;-77
2022/11/17 08:37:48;;;;;;;2.20;2.10;;;;;;;2.26;100.00;97754.40;106122;1288;61320;-78
2022/11/17 08:40:16;;;;;;;2.80;2.30;;;;;;;2.27;100.00;97758.41;106320;1285;68145;-78
2022/11/17 08:42:44;;;;;;;2.00;1.90;;;;;;;2.26;100.00;97767.02;106307;1292;61417;-75
2022/11/17 08:45:11;;;;;;;2.60;2.40;;;;;;;2.28;100.00;97772.55;106300;1292;64455;-76
2022/11/17 08:47:38;;;;;;;2.50;1.90;;;;;;;2.29;100.00;97765.14;106299;1285;59644;-77
2022/11/17 08:50:06;;;;;;;2.40;2.20;;;;;;;2.32;100.00;97772.31;106307;1285;59767;-78
2022/11/17 08:52:32;;;;;;;2.80;2.40;;;;;;;2.33;100.00;97776.47;106070;1291;65475;-78
2022/11/17 08:54:59;;;;;;;2.60;2.40;;;;;;;2.34;100.00;97783.44;106328;1286;68997;-78
2022/11/17 08:57:27;;;;;;;2.20;2.00;;;;;;;2.34;100.00;97791.34;106140;1288;62651;-77
2022/11/17 08:59:54;;;;;;;2.30;2.10;;;;;;;2.31;100.00;97800.45;106306;1285;59623;-78
2022/11/17 09:02:20;;;;;;;2.50;2.30;;;;;;;2.25;100.00;97803.69;106325;1282;59742;-77
2022/11/17 09:04:47;;;;;;;2.00;1.80;;;;;;;2.24;100.00;97800.27;106344;1284;68344;-79
2022/11/17 09:07:13;;;;;;;2.20;2.00;;;;;;;2.22;100.00;97800.71;105964;1289;61227;-78
2022/11/17 09:09:40;;;;;;;2.10;2.00;;;;;;;2.20;100.00;97799.60;105992;1287;63952;-78
2022/11/17 09:12:07;;;;;;;2.10;1.90;;;;;;;2.18;100.00;97799.86;106009;1291;59651;-78
2022/11/17 09:14:34;;;;;;;2.50;2.10;;;;;;;2.19;100.00;97799.45;106050;1282;59657;-79
2022/11/17 09:17:00;;;;;;;3.30;2.00;;;;;;;2.22;100.00;97793.52;105998;1283;67804;-78
2022/11/17 09:19:27;;;;;;;2.50;2.20;;;;;;;2.20;100.00;97792.20;106000;1288;60015;-78
2022/11/17 09:21:53;;;;;;;2.30;2.10;;;;;;;2.19;100.00;97793.50;105961;1287;65139;-76
2022/11/17 09:24:20;;;;;;;2.50;2.30;;;;;;;2.19;100.00;97788.24;106009;1287;59713;-78
2022/11/17 09:26:47;;;;;;;2.90;2.70;;;;;;;2.20;100.00;97785.38;106000;1281;59679;-78
2022/11/17 09:29:14;;;;;;;2.30;2.20;;;;;;;2.22;100.00;97781.77;106018;1288;67785;-78
2022/11/17 09:31:40;;;;;;;2.50;2.30;;;;;;;2.27;100.00;97779.27;106014;1289;60175;-76
2022/11/17 09:34:07;;;;;;;3.00;2.80;;;;;;;2.33;100.00;97778.38;106025;1289;64033;-77
2022/11/17 09:36:33;;;;;;;3.00;2.60;;;;;;;2.44;100.00;97778.87;106012;1289;59850;-78
2022/11/17 09:39:00;;;;;;;2.70;2.40;;;;;;;2.53;100.00;97776.10;106198;1286;59844;-78
2022/11/17 09:41:33;;;;;;;3.80;3.50;;;;;;;2.63;100.00;97777.34;106323;1285;66727;-78
2022/11/17 09:44:45;;;;;;;2.70;2.40;;;;;;;2.74;100.00;97783.70;106110;1289;69986;-77
2022/11/17 09:48:02;;;;;;;4.60;2.40;;;;;;;2.81;100.00;97781.06;105722;1295;64269;-77
2022/11/17 09:50:35;;;;;;;2.70;2.50;;;;;;;2.89;100.00;97784.85;105292;1297;59774;-78
2022/11/17 09:53:23;;;;;;;2.20;2.00;;;;;;;2.93;100.00;97787.09;105112;1302;61367;-78
2022/11/17 09:55:56;;;;;;;2.20;2.00;;;;;;;2.92;100.00;97786.41;105303;1298;66907;-78
2022/11/17 09:58:36;;;;;;;2.70;2.50;;;;;;;2.89;100.00;97790.28;105294;1298;61309;-78
2022/11/17 10:01:03;;;;;;;3.20;2.60;;;;;;;2.87;100.00;97794.43;105258;1291;64132;-77
2022/11/17 10:03:36;;;;;;;2.50;2.30;;;;;;;2.86;100.00;97794.79;105269;1301;59660;-77
2022/11/17 10:06:10;;;;;;;3.60;3.20;;;;;;;2.86;100.00;97797.61;105297;1298;59569;-78
2022/11/17 10:08:47;;;;;;;2.50;2.30;;;;;;;2.90;100.00;97799.85;105282;1298;76407;-77
2022/11/17 10:11:31;;;;;;;2.20;2.00;;;;;;;2.95;100.00;97800.79;105268;1297;69048;-77
2022/11/17 10:14:02;;;;;;;2.60;2.10;;;;;;;2.96;100.00;97804.29;105039;1306;74123;-78
2022/11/17 10:16:30;;;;;;;2.60;2.40;;;;;;;2.95;100.00;97805.39;105220;1306;59735;-78
2022/11/17 10:18:57;;;;;;;3.20;2.90;;;;;;;2.99;100.00;97807.28;105533;1293;60020;-78
2022/11/17 10:21:29;;;;;;;6.50;4.70;;;;;;;2.99;100.00;97803.76;105431;1298;65561;-79
2022/11/17 10:23:57;;;;;;;3.80;3.10;;;;;;;2.94;100.00;97809.13;105489;1297;60015;-78
2022/11/17 10:26:25;;;;;;;2.80;2.60;;;;;;;2.83;100.00;97815.32;105884;1284;64580;-79
2022/11/17 10:29:07;;;;;;;2.30;2.00;;;;;;;2.72;100.00;97815.21;106007;1283;59647;-79
2022/11/17 10:31:45;;;;;;;2.80;2.30;;;;;;;2.59;100.00;97814.02;106325;1278;59640;-77
2022/11/17 10:34:30;;;;;;;1.90;1.80;;;;;;;2.50;100.00;97809.42;106330;1286;65702;-78
2022/11/17 10:37:03;;;;;;;2.60;2.40;;;;;;;2.38;100.00;97804.44;106295;1285;67712;-78
2022/11/17 10:39:40;;;;;;;2.50;2.30;;;;;;;2.34;100.00;97800.59;106313;1285;64020;-77
2022/11/17 10:42:19;;;;;;;2.80;2.50;;;;;;;2.33;100.00;97791.20;106309;1285;59667;-78
2022/11/17 10:44:50;;;;;;;3.00;2.60;;;;;;;2.35;100.00;97784.09;106077;1286;59991;-77
2022/11/17 10:47:27;;;;;;;3.10;2.50;;;;;;;2.45;100.00;97782.00;106326;1285;66803;-76
2022/11/17 10:50:13;;;;;;;3.20;2.00;;;;;;;2.53;100.00;97788.88;106337;1278;59776;-76
2022/11/17 10:52:40;;;;;;;2.90;2.30;;;;;;;2.59;100.00;97797.66;106294;1291;65442;-78
2022/11/17 10:55:37;;;;;;;3.90;2.50;;;;;;;2.60;100.00;97808.88;105942;1280;59778;-77
2022/11/17 10:58:22;;;;;;;2.60;2.40;;;;;;;2.55;100.00;97809.67;105801;1292;59787;-77
2022/11/17 11:00:55;;;;;;;3.20;2.80;;;;;;;2.49;100.00;97813.66;105793;1290;67847;-79
2022/11/17 11:03:28;;;;;;;3.60;3.10;;;;;;;2.45;100.00;97814.57;105531;1292;59889;-79
2022/11/17 11:06:17;;;;;;;3.20;2.90;;;;;;;2.46;100.00;97817.31;105809;1292;66238;-79
2022/11/17 11:08:54;;;;;;;2.60;2.40;;;;;;;2.47;100.00;97816.74;105769;1292;59981;-79
2022/11/17 11:11:43;;;;;;;2.40;2.20;;;;;;;2.44;100.00;97811.84;105769;1285;59743;-78
2022/11/17 11:14:39;;;;;;;2.50;2.20;;;;;;;2.41;100.00;97803.72;105798;1292;69459;-77
2022/11/17 11:17:11;;;;;;;2.80;2.20;;;;;;;2.40;100.00;97802.59;105792;1292;61015;-76
2022/11/17 11:19:41;;;;;;;3.30;3.00;;;;;;;2.37;100.00;97797.63;105671;1294;63928;-78
2022/11/17 11:22:27;;;;;;;3.20;2.50;;;;;;;2.36;100.00;97787.88;105788;1285;59775;-79
2022/11/17 11:25:32;;;;;;;3.20;2.90;;;;;;;2.38;100.00;97786.90;105805;1287;59779;-78
2022/11/17 11:28:10;;;;;;;4.50;3.30;;;;;;;2.43;100.00;97792.63;105766;1284;68046;-76
2022/11/17 11:30:52;;;;;;;3.50;3.00;;;;;;;2.46;100.00;97786.45;105771;1292;61230;-77
2022/11/17 11:33:35;;;;;;;3.20;2.70;;;;;;;2.51;100.00;97777.45;105782;1292;65307;-78
2022/11/17 11:36:05;;;;;;;4.20;3.00;;;;;;;2.56;100.00;97772.40;106310;1285;59730;-78
2022/11/17 11:38:57;;;;;;;3.70;3.20;;;;;;;2.60;100.00;97778.52;106295;1285;60269;-80
2022/11/17 11:41:43;;;;;;;3.50;2.90;;;;;;;2.60;100.00;97778.37;106322;1284;68047;-77
2022/11/17 11:44:43;;;;;;;3.20;2.70;;;;;;;2.58;100.00;97785.80;106303;1285;69742;-78
2022/11/17 11:47:45;;;;;;;3.70;2.90;;;;;;;2.57;100.00;97783.58;106294;1278;73421;-77
2022/11/17 11:50:24;;;;;;;6.00;4.30;;;;;;;2.56;100.00;97782.23;105751;1294;59926;-77
2022/11/17 11:53:17;;;;;;;3.30;3.00;;;;;;;2.58;100.00;97787.42;105785;1289;59564;-78
2022/11/17 11:55:47;;;;;;;3.30;2.70;;;;;;;2.58;100.00;97795.79;105767;1289;65533;-78
2022/11/17 11:58:21;;;;;;;3.30;2.80;;;;;;;2.54;100.00;97797.77;105780;1286;60965;-79
2022/11/17 12:00:53;;;;;;;3.40;2.80;;;;;;;2.49;100.00;97798.05;105763;1292;64029;-77
2022/11/17 12:03:44;;;;;;;4.40;3.60;;;;;;;2.46;100.00;97801.71;105757;1299;60225;-78
2022/11/17 12:06:39;;;;;;;3.50;3.10;;;;;;;2.44;100.00;97804.98;105793;1292;59686;-78
2022/11/17 12:09:45;;;;;;;3.90;3.20;;;;;;;2.41;100.00;97809.00;105758;1295;66784;-78
2022/11/17 12:12:19;;;;;;;5.70;4.80;;;;;;;2.34;100.00;97820.94;105789;1292;61286;-76
2022/11/17 12:15:11;;;;;;;5.00;3.80;;;;;;;2.29;100.00;97817.19;105655;1300;63884;-78
2022/11/17 12:18:01;;;;;;;7.20;5.20;;;;;;;2.25;100.00;97810.37;105771;1292;60038;-78
2022/11/17 12:20:52;;;;;;;3.80;3.40;;;;;;;2.23;100.00;97807.35;105696;1294;59725;-76